sensor_id;sensor_type;location;lat;lon;timestamp;temperature;humidity
34568;DHT22;20806;50.746;7.116;2022-08-19T12:33:32;39.00;91.50
34568;DHT22;20806;50.746;7.116;2022-08-19T12:36:03;40.70;77.00
34568;DHT22;20806;50.746;7.116;2022-08-19T12:38:29;42.20;67.80
34568;DHT22;20806;50.746;7.116;2022-08-19T12:40:55;43.40;60.40
34568;DHT22;20806;50.746;7.116;2022-08-19T12:43:20;44.10;61.90
34568;DHT22;20806;50.746;7.116;2022-08-19T12:45:47;44.50;58.20
34568;DHT22;20806;50.746;7.116;2022-08-19T12:48:13;44.20;59.00
34568;DHT22;20806;50.746;7.116;2022-08-19T12:50:40;42.70;60.40
34568;DHT22;20806;50.746;7.116;2022-08-19T12:53:06;42.80;61.30
34568;DHT22;20806;50.746;7.116;2022-08-19T12:55:32;43.30;60.80
34568;DHT22;20806;50.746;7.116;2022-08-19T12:57:58;43.60;58.80
34568;DHT22;20806;50.746;7.116;2022-08-19T13:00:23;43.70;59.00
34568;DHT22;20806;50.746;7.116;2022-08-19T13:02:51;43.80;59.10
34568;DHT22;20806;50.746;7.116;2022-08-19T13:05:24;43.80;58.90
34568;DHT22;20806;50.746;7.116;2022-08-19T13:07:51;43.60;59.30
34568;DHT22;20806;50.746;7.116;2022-08-19T13:10:20;43.20;59.60
34568;DHT22;20806;50.746;7.116;2022-08-19T13:12:47;43.00;59.70
34568;DHT22;20806;50.746;7.116;2022-08-19T13:15:14;42.80;60.10
34568;DHT22;20806;50.746;7.116;2022-08-19T13:17:40;42.80;60.50
34568;DHT22;20806;50.746;7.116;2022-08-19T13:20:10;42.80;60.50
34568;DHT22;20806;50.746;7.116;2022-08-19T13:22:37;42.80;60.20
34568;DHT22;20806;50.746;7.116;2022-08-19T13:25:07;42.60;60.20
34568;DHT22;20806;50.746;7.116;2022-08-19T13:27:32;42.50;60.30
34568;DHT22;20806;50.746;7.116;2022-08-19T13:30:01;42.30;60.60
34568;DHT22;20806;50.746;7.116;2022-08-19T13:32:46;41.60;60.70
34568;DHT22;20806;50.746;7.116;2022-08-19T13:35:30;40.90;61.70
34568;DHT22;20806;50.746;7.116;2022-08-19T13:37:56;40.80;62.40
34568;DHT22;20806;50.746;7.116;2022-08-19T13:40:23;40.70;62.40
34568;DHT22;20806;50.746;7.116;2022-08-19T13:42:53;40.30;62.80
34568;DHT22;20806;50.746;7.116;2022-08-19T13:45:23;39.90;63.20
34568;DHT22;20806;50.746;7.116;2022-08-19T13:47:52;39.40;64.10
34568;DHT22;20806;50.746;7.116;2022-08-19T13:50:21;38.90;64.70
34568;DHT22;20806;50.746;7.116;2022-08-19T13:52:47;38.60;65.50
34568;DHT22;20806;50.746;7.116;2022-08-19T13:55:15;38.40;65.90
34568;DHT22;20806;50.746;7.116;2022-08-19T13:57:41;38.20;65.90
34568;DHT22;20806;50.746;7.116;2022-08-19T14:00:13;38.20;66.00
34568;DHT22;20806;50.746;7.116;2022-08-19T14:02:40;38.10;66.00
34568;DHT22;20806;50.746;7.116;2022-08-19T14:05:08;37.80;66.10
34568;DHT22;20806;50.746;7.116;2022-08-19T14:07:34;37.70;66.20
34568;DHT22;20806;50.746;7.116;2022-08-19T14:10:01;37.70;66.70
34568;DHT22;20806;50.746;7.116;2022-08-19T14:12:27;37.50;66.50
34568;DHT22;20806;50.746;7.116;2022-08-19T14:14:53;37.20;67.00
34568;DHT22;20806;50.746;7.116;2022-08-19T14:17:19;36.90;67.60
34568;DHT22;20806;50.746;7.116;2022-08-19T14:19:44;36.60;68.00
34568;DHT22;20806;50.746;7.116;2022-08-19T14:22:10;36.50;68.20
34568;DHT22;20806;50.746;7.116;2022-08-19T14:24:37;36.30;68.60
34568;DHT22;20806;50.746;7.116;2022-08-19T14:27:05;35.90;69.10
34568;DHT22;20806;50.746;7.116;2022-08-19T14:29:32;35.40;68.40
34568;DHT22;20806;50.746;7.116;2022-08-19T14:31:57;35.00;68.50
34568;DHT22;20806;50.746;7.116;2022-08-19T14:34:25;34.70;69.10
34568;DHT22;20806;50.746;7.116;2022-08-19T14:36:51;34.60;69.60
34568;DHT22;20806;50.746;7.116;2022-08-19T14:39:17;34.50;69.90
34568;DHT22;20806;50.746;7.116;2022-08-19T14:41:43;34.50;70.30
34568;DHT22;20806;50.746;7.116;2022-08-19T14:44:08;34.70;70.60
34568;DHT22;20806;50.746;7.116;2022-08-19T14:46:37;34.50;70.60
34568;DHT22;20806;50.746;7.116;2022-08-19T14:49:03;34.40;70.90
34568;DHT22;20806;50.746;7.116;2022-08-19T14:51:30;34.30;71.00
34568;DHT22;20806;50.746;7.116;2022-08-19T14:53:55;34.10;71.10
34568;DHT22;20806;50.746;7.116;2022-08-19T14:56:25;33.90;71.00
34568;DHT22;20806;50.746;7.116;2022-08-19T14:58:52;33.70;70.90
34568;DHT22;20806;50.746;7.116;2022-08-19T15:01:19;33.60;71.20
34568;DHT22;20806;50.746;7.116;2022-08-19T15:03:46;33.40;71.80
34568;DHT22;20806;50.746;7.116;2022-08-19T15:06:12;33.10;72.30
34568;DHT22;20806;50.746;7.116;2022-08-19T15:08:39;33.00;72.10
34568;DHT22;20806;50.746;7.116;2022-08-19T15:11:16;32.90;72.50
34568;DHT22;20806;50.746;7.116;2022-08-19T15:13:43;32.80;72.60
34568;DHT22;20806;50.746;7.116;2022-08-19T15:16:12;32.70;72.60
34568;DHT22;20806;50.746;7.116;2022-08-19T15:18:40;32.60;73.30
34568;DHT22;20806;50.746;7.116;2022-08-19T15:21:10;32.70;73.90
34568;DHT22;20806;50.746;7.116;2022-08-19T15:23:38;32.80;74.20
34568;DHT22;20806;50.746;7.116;2022-08-19T15:26:04;32.60;74.50
34568;DHT22;20806;50.746;7.116;2022-08-19T15:28:30;32.60;74.80
34568;DHT22;20806;50.746;7.116;2022-08-19T15:30:58;32.50;75.00
34568;DHT22;20806;50.746;7.116;2022-08-19T15:33:24;32.50;75.30
34568;DHT22;20806;50.746;7.116;2022-08-19T15:35:50;32.30;75.50
34568;DHT22;20806;50.746;7.116;2022-08-19T15:38:17;32.40;75.50
34568;DHT22;20806;50.746;7.116;2022-08-19T15:40:47;32.30;75.80
34568;DHT22;20806;50.746;7.116;2022-08-19T15:43:14;32.30;76.00
34568;DHT22;20806;50.746;7.116;2022-08-19T15:45:40;32.40;76.10
34568;DHT22;20806;50.746;7.116;2022-08-19T15:48:06;32.50;76.20
34568;DHT22;20806;50.746;7.116;2022-08-19T15:50:32;32.30;76.20
34568;DHT22;20806;50.746;7.116;2022-08-19T15:53:04;32.30;76.60
34568;DHT22;20806;50.746;7.116;2022-08-19T15:55:32;32.10;77.10
